Ana Sayfa
METAR-TAF:

METAR-TAF

Havaalanları :

Alor Setar, Malezya

Enlem: 06-11-40N, Boylam: 100-24-03E, yükseklik: 5 m

Güncel hava durumu gözlemi

Rapor saat 09:00 UTC de 59 dakika önce yapıldı.
Rüzgar değişken yönden 5 kt
Sıcaklık 35°C
Nem 53%
Basınç 1006 hPa
Görüş mesafesi 10 km veya daha fazla
2000 ft yükseklikte parçalı bulutlu

METAR: WMKA 280900Z VRB05KT 9999 SCT020 35/24 Q1006

Saat: 17:59 (09:59 UTC)

Tahmin

Rapor saat 05:00 UTC de 4 saat ve 59 dakika önce yapıldı.
Ayın 28'si saat 06 UTC'den ayın 29'si saat 06 UTC'ye kadar geçerli Tahmin
Rüzgar doğu/kuzeydoğudan 8 kt
Görüş mesafesi 10 km veya daha fazla
2000 ft yükseklikte az bulutlu
Dönüşüyor
ayın 28'si saat 10 UTC'den ayın 28'si saat 12 UTC'ye kadar
Rüzgar kuzeydoğudan 5 kt
2800 ft yükseklikte az bulutlu

TAF: WMKA 280500Z 2806/2906 06008KT 9999 FEW020 BECMG 2810/2812 05005KT FEW028

4.000'den fazla havaalanı için hava durumu gözlemleri ve tahminleri (METAR ve TAF raporları).

Kullanılabilir istasyonlar harita üzerinde sarı ve kırmızı noktalarla gösterilir.

İstasyonun adını görmek için fareyi noktanın üzerinde gezdirin.

Sonrasında hava gözlem ve tahminlerini görmek için tıklayın.

Haritayı değiştirmek için: yaklaştırmak için siyah artı işaretli yeşil düğmeye ve uzaklaştırmak için de eksi işaretli düğmeye hızla tıklayın; bitişik haritalar için yeşil okları kullanın.


METAR-TAF: